Terminal Aerodrome Forecast
Issued by NWS Pendleton, OR

Home | Current Version | Previous Version | Text Only | Print | Product List | Glossary On
Versions: 1 2 3 4 5 6 7 8 9 10 11 12
000
FTUS46 KPDT 131700
TAFPDT
TAF
KPDT 131731Z 1318/1418 VRB06KT P6SM FEW200
     FM132100 35008KT P6SM SCT120 BKN250
     FM140100 34007KT P6SM BKN120
     FM140300 33010KT P6SM VCTS SCT100CB BKN120CB PROB30 1403/1406
      33010KT P6SM -TSRA SCT100CB BKN120
     FM140600 16008KT P6SM -SHRA SCT080 BKN120
     FM141500 VRB06KT P6SM SCT120 BKN150=

USA.gov is the U.S. government's official web portal to all federal, state and local government web resources and services.